This is the latest recevied weather packets stored in our database for station/object KI5GCD-13. If no packets are shown the sender has not sent any weather packets the latest 10 day(s).
| Time | Temp. | Humidity | Pressure | Rain* | Wind** | Luminosity | Snow |
|---|---|---|---|---|---|---|---|
| 1777909787 | 22.22° C | 57% | 1005.1 hPa | 0 mm | 0.45 m/s, 160° | - | - |
| 1777909487 | 22.22° C | 57% | 1005.3 hPa | 0 mm | 2.24 m/s, 137° | - | - |
| 1777909187 | 22.22° C | 56% | 1005.2 hPa | 0 mm | 3.13 m/s, 198° | - | - |
| 1777908887 | 22.22° C | 56% | 1005 hPa | 0 mm | 3.58 m/s, 161° | - | - |
| 1777908587 | 21.67° C | 56% | 1005.1 hPa | 0 mm | 0.89 m/s, 172° | - | - |
| 1777908287 | 22.22° C | 56% | 1005.2 hPa | 0 mm | 3.13 m/s, 177° | - | - |
| 1777907987 | 21.67° C | 57% | 1005.1 hPa | 0 mm | 0.89 m/s, 220° | - | - |
| 1777907687 | 21.67° C | 57% | 1005 hPa | 0 mm | 3.58 m/s, 195° | - | - |
| 1777907387 | 21.67° C | 57% | 1005.1 hPa | 0 mm | 1.34 m/s, 241° | - | - |
| 1777907087 | 21.67° C | 57% | 1005.4 hPa | 0 mm | 0.89 m/s, 229° | - | - |
| 1777906787 | 21.11° C | 57% | 1005.4 hPa | 0 mm | 0.89 m/s, 245° | - | - |
| 1777906487 | 21.67° C | 57% | 1005.4 hPa | 0 mm | 2.68 m/s, 242° | - | - |
| 1777906187 | 21.11° C | 58% | 1005.6 hPa | 0 mm | 0.89 m/s, 261° | - | - |
| 1777905887 | 21.11° C | 57% | 1005.4 hPa | 0 mm | 1.79 m/s, 193° | - | - |
| 1777905587 | 20.56° C | 58% | 1005.3 hPa | 0 mm | 1.34 m/s, 231° | - | - |
| 1777905287 | 20.56° C | 58% | 1005.6 hPa | 0 mm | 2.68 m/s, 161° | - | - |
| 1777904987 | 20.56° C | 58% | 1005.6 hPa | 0 mm | 1.79 m/s, 223° | - | - |
| 1777904687 | 20.56° C | 58% | 1005.6 hPa | 0 mm | 3.58 m/s, 275° | - | - |
| 1777904387 | 20.56° C | 58% | 1005.9 hPa | 0 mm | 1.79 m/s, 239° | - | - |
| 1777904087 | 20° C | 59% | 1005.7 hPa | 0 mm | 2.68 m/s, 210° | - | - |
| 1777903787 | 20° C | 59% | 1005.9 hPa | 0 mm | 2.68 m/s, 248° | - | - |
| 1777903487 | 20° C | 62% | 1006 hPa | 0 mm | 0.45 m/s, 237° | - | - |
| 1777903187 | 20° C | 60% | 1005.9 hPa | 0 mm | 0.45 m/s, 136° | - | - |
| 1777902887 | 20° C | 62% | 1006 hPa | 0 mm | 2.68 m/s, 255° | - | - |
| 1777902587 | 19.44° C | 61% | 1006 hPa | 0 mm | 0.89 m/s, 213° | - | - |
* Rain latest hour (hover to see other rain measurements)
** Current wind speed in m/s (hover to see current wind gust speed)